Status Flugplatz

Der Flugplatz ist offen
PPR Regelung ! PJE !!!

123.15 MHz
RWY 05/23

flüger beizli - Öffnungszeiten
Freitag ab 16:00
Samstag +Sonntag ab 11:00
Bei schönem Wetter öffnen wir früher! Tel.: 079 234 07 74
[source: ADDS]
METAR
LSZB 232320Z AUTO VRB02KT 9999 BKN100 03/02 Q1017 =
TAF
TAF LSZB 231425Z 2315/2324 VRB03KT CAVOK PROB40 TEMPO 2315/2324 9999 SCT100 =

 


 

[source: ADDS]
METAR
LSGC 232320Z AUTO 26005KT 9999 SCT048 BKN060 BKN080 08/03 Q1017 =
TAF
TAF LSGC 231425Z 2315/2324 22008KT CAVOK =

 


 

[source: ADDS]
METAR
LFSB 232330Z 16003KT 130V200 9999 FEW055 BKN090 08/05 Q1015 NOSIG =
TAF
TAF LFSB 232301Z 2400/2424 17005KT 9999 FEW050 BKN090 PROB40 TEMPO 2416/2424 24010KT 5000 RA =

Wetter Kappelen

 


 

[source: ADDS]
METAR
LSZG 232320Z AUTO 06002KT CAVOK 03/02 Q1017 =
TAF
TAF LSZG 231425Z 2315/2324 25005KT CAVOK PROB40 2321/2324 9999 SCT060 PROB30 2322/2324 1500 BKN008 =
SR / SS: 06:49 / 15:48 UTC ( 2017-11-24)

 


 

Flugplatz Biel-Kappelen LSZP - 123.15MHz - 032 384 46 84

Email: Diese E-Mail-Adresse ist vor Spambots geschützt! Zur Anzeige muss JavaScript eingeschaltet sein!
www.lszp.ch
2017 © by mb

Zum Anfang